sensor_id;sensor_type;location;lat;lon;timestamp;pressure;altitude;pressure_sealevel;temperature;humidity
10852;BME280;5479;52.046;6.314;2022-10-04T00:01:07;102283.81;;;11.84;100.00
10852;BME280;5479;52.046;6.314;2022-10-04T00:03:40;102289.00;;;11.87;100.00
10852;BME280;5479;52.046;6.314;2022-10-04T00:06:15;102290.91;;;11.83;100.00
10852;BME280;5479;52.046;6.314;2022-10-04T00:08:48;102280.16;;;11.86;100.00
10852;BME280;5479;52.046;6.314;2022-10-04T00:11:22;102273.81;;;11.90;100.00
10852;BME280;5479;52.046;6.314;2022-10-04T00:13:55;102275.53;;;11.91;100.00
10852;BME280;5479;52.046;6.314;2022-10-04T00:16:27;102274.53;;;11.94;100.00
10852;BME280;5479;52.046;6.314;2022-10-04T00:19:24;102271.97;;;11.92;100.00
10852;BME280;5479;52.046;6.314;2022-10-04T00:22:10;102271.56;;;12.01;100.00
10852;BME280;5479;52.046;6.314;2022-10-04T00:28:22;102267.81;;;11.85;100.00
10852;BME280;5479;52.046;6.314;2022-10-04T00:31:22;102255.47;;;11.84;100.00
10852;BME280;5479;52.046;6.314;2022-10-04T00:33:57;102249.38;;;11.82;100.00
10852;BME280;5479;52.046;6.314;2022-10-04T00:36:47;102254.75;;;11.81;100.00
10852;BME280;5479;52.046;6.314;2022-10-04T00:39:37;102247.00;;;11.75;100.00
10852;BME280;5479;52.046;6.314;2022-10-04T00:45:10;102235.16;;;11.83;100.00
10852;BME280;5479;52.046;6.314;2022-10-04T00:47:57;102230.53;;;11.88;100.00
10852;BME280;5479;52.046;6.314;2022-10-04T00:50:33;102229.19;;;11.98;100.00
10852;BME280;5479;52.046;6.314;2022-10-04T00:53:12;102224.41;;;11.86;100.00
10852;BME280;5479;52.046;6.314;2022-10-04T00:55:46;102219.38;;;11.80;100.00
10852;BME280;5479;52.046;6.314;2022-10-04T00:58:19;102225.78;;;11.75;100.00
10852;BME280;5479;52.046;6.314;2022-10-04T01:00:51;102231.06;;;11.76;100.00
10852;BME280;5479;52.046;6.314;2022-10-04T01:03:26;102226.66;;;11.75;100.00
10852;BME280;5479;52.046;6.314;2022-10-04T01:05:58;102218.50;;;11.80;100.00
10852;BME280;5479;52.046;6.314;2022-10-04T01:08:30;102216.91;;;11.76;100.00
10852;BME280;5479;52.046;6.314;2022-10-04T01:11:02;102217.78;;;11.76;100.00
10852;BME280;5479;52.046;6.314;2022-10-04T01:13:36;102209.88;;;11.75;100.00
10852;BME280;5479;52.046;6.314;2022-10-04T01:16:11;102208.03;;;11.77;100.00
10852;BME280;5479;52.046;6.314;2022-10-04T01:18:42;102198.00;;;11.83;100.00
10852;BME280;5479;52.046;6.314;2022-10-04T01:21:23;102194.47;;;11.83;100.00
10852;BME280;5479;52.046;6.314;2022-10-04T01:24:18;102189.63;;;11.72;100.00
10852;BME280;5479;52.046;6.314;2022-10-04T01:26:49;102177.66;;;11.62;100.00
10852;BME280;5479;52.046;6.314;2022-10-04T01:29:23;102174.06;;;11.63;100.00
10852;BME280;5479;52.046;6.314;2022-10-04T01:31:53;102182.06;;;11.62;100.00
10852;BME280;5479;52.046;6.314;2022-10-04T01:34:24;102179.09;;;11.71;100.00
10852;BME280;5479;52.046;6.314;2022-10-04T01:36:54;102180.50;;;11.79;100.00
10852;BME280;5479;52.046;6.314;2022-10-04T01:39:25;102187.50;;;11.80;100.00
10852;BME280;5479;52.046;6.314;2022-10-04T01:41:56;102184.81;;;11.82;100.00
10852;BME280;5479;52.046;6.314;2022-10-04T01:44:30;102185.41;;;11.88;100.00
10852;BME280;5479;52.046;6.314;2022-10-04T01:47:02;102180.22;;;11.85;100.00
10852;BME280;5479;52.046;6.314;2022-10-04T01:49:35;102175.06;;;11.82;100.00
10852;BME280;5479;52.046;6.314;2022-10-04T01:52:07;102169.59;;;11.85;100.00
10852;BME280;5479;52.046;6.314;2022-10-04T01:54:42;102181.28;;;11.81;100.00
10852;BME280;5479;52.046;6.314;2022-10-04T01:57:14;102184.19;;;11.75;100.00
10852;BME280;5479;52.046;6.314;2022-10-04T01:59:50;102177.19;;;11.74;100.00
10852;BME280;5479;52.046;6.314;2022-10-04T02:02:23;102180.88;;;11.70;100.00
10852;BME280;5479;52.046;6.314;2022-10-04T02:04:56;102178.22;;;11.70;100.00
10852;BME280;5479;52.046;6.314;2022-10-04T02:07:27;102175.78;;;11.64;100.00
10852;BME280;5479;52.046;6.314;2022-10-04T02:10:00;102177.06;;;11.56;100.00
10852;BME280;5479;52.046;6.314;2022-10-04T02:12:30;102163.09;;;11.50;100.00
10852;BME280;5479;52.046;6.314;2022-10-04T02:15:02;102160.38;;;11.52;100.00
10852;BME280;5479;52.046;6.314;2022-10-04T02:17:38;102143.97;;;11.42;100.00
10852;BME280;5479;52.046;6.314;2022-10-04T02:20:12;102135.75;;;11.28;100.00
10852;BME280;5479;52.046;6.314;2022-10-04T02:22:42;102140.31;;;11.25;100.00
10852;BME280;5479;52.046;6.314;2022-10-04T02:25:12;102144.13;;;11.18;100.00
10852;BME280;5479;52.046;6.314;2022-10-04T02:27:41;102140.19;;;11.28;100.00
10852;BME280;5479;52.046;6.314;2022-10-04T02:30:11;102144.84;;;11.21;100.00
10852;BME280;5479;52.046;6.314;2022-10-04T02:32:41;102136.97;;;11.20;100.00
10852;BME280;5479;52.046;6.314;2022-10-04T02:35:27;102143.94;;;11.22;100.00
10852;BME280;5479;52.046;6.314;2022-10-04T02:38:08;102125.50;;;11.19;100.00
10852;BME280;5479;52.046;6.314;2022-10-04T02:40:43;102126.84;;;11.29;100.00
10852;BME280;5479;52.046;6.314;2022-10-04T02:43:15;102127.91;;;11.25;100.00
10852;BME280;5479;52.046;6.314;2022-10-04T02:45:49;102134.00;;;11.27;100.00
10852;BME280;5479;52.046;6.314;2022-10-04T02:48:32;102126.25;;;11.23;100.00
10852;BME280;5479;52.046;6.314;2022-10-04T02:51:13;102109.00;;;11.13;100.00
10852;BME280;5479;52.046;6.314;2022-10-04T02:53:47;102113.91;;;11.00;100.00
10852;BME280;5479;52.046;6.314;2022-10-04T02:56:19;102106.34;;;10.91;100.00
10852;BME280;5479;52.046;6.314;2022-10-04T02:58:49;102113.53;;;10.87;100.00
10852;BME280;5479;52.046;6.314;2022-10-04T03:01:23;102103.84;;;10.86;100.00
10852;BME280;5479;52.046;6.314;2022-10-04T03:03:54;102091.59;;;10.84;100.00
10852;BME280;5479;52.046;6.314;2022-10-04T03:06:27;102091.28;;;10.91;100.00
10852;BME280;5479;52.046;6.314;2022-10-04T03:09:00;102099.06;;;10.74;100.00
10852;BME280;5479;52.046;6.314;2022-10-04T03:11:34;102093.00;;;10.71;100.00
10852;BME280;5479;52.046;6.314;2022-10-04T03:14:05;102093.19;;;10.66;100.00
10852;BME280;5479;52.046;6.314;2022-10-04T03:16:36;102093.31;;;10.63;100.00
10852;BME280;5479;52.046;6.314;2022-10-04T03:19:06;102088.91;;;10.62;100.00
10852;BME280;5479;52.046;6.314;2022-10-04T03:21:34;102089.19;;;10.56;100.00
10852;BME280;5479;52.046;6.314;2022-10-04T03:24:05;102095.88;;;10.65;100.00
10852;BME280;5479;52.046;6.314;2022-10-04T03:26:39;102094.59;;;10.53;100.00
10852;BME280;5479;52.046;6.314;2022-10-04T03:29:11;102099.31;;;10.45;100.00
10852;BME280;5479;52.046;6.314;2022-10-04T03:31:42;102091.25;;;10.48;100.00
10852;BME280;5479;52.046;6.314;2022-10-04T03:34:14;102082.50;;;10.46;100.00
10852;BME280;5479;52.046;6.314;2022-10-04T03:36:43;102079.91;;;10.45;100.00
10852;BME280;5479;52.046;6.314;2022-10-04T03:39:17;102078.94;;;10.47;100.00
10852;BME280;5479;52.046;6.314;2022-10-04T03:41:47;102078.84;;;10.49;100.00
10852;BME280;5479;52.046;6.314;2022-10-04T03:44:16;102068.91;;;10.55;100.00
10852;BME280;5479;52.046;6.314;2022-10-04T03:46:46;102074.84;;;10.62;100.00
10852;BME280;5479;52.046;6.314;2022-10-04T03:49:17;102078.41;;;10.61;100.00
10852;BME280;5479;52.046;6.314;2022-10-04T03:51:50;102068.56;;;10.64;100.00
10852;BME280;5479;52.046;6.314;2022-10-04T03:54:21;102060.53;;;10.66;100.00
10852;BME280;5479;52.046;6.314;2022-10-04T03:56:52;102065.09;;;10.62;100.00
10852;BME280;5479;52.046;6.314;2022-10-04T03:59:22;102070.38;;;10.62;100.00
10852;BME280;5479;52.046;6.314;2022-10-04T04:02:01;102068.56;;;10.64;100.00
10852;BME280;5479;52.046;6.314;2022-10-04T04:04:40;102073.59;;;10.70;100.00
10852;BME280;5479;52.046;6.314;2022-10-04T04:07:12;102070.03;;;10.71;100.00
10852;BME280;5479;52.046;6.314;2022-10-04T04:09:44;102052.50;;;10.67;100.00
10852;BME280;5479;52.046;6.314;2022-10-04T04:12:17;102044.03;;;10.59;100.00
10852;BME280;5479;52.046;6.314;2022-10-04T04:14:49;102037.34;;;10.49;100.00
10852;BME280;5479;52.046;6.314;2022-10-04T04:17:35;102035.88;;;10.42;100.00
10852;BME280;5479;52.046;6.314;2022-10-04T04:20:06;102035.88;;;10.42;100.00
10852;BME280;5479;52.046;6.314;2022-10-04T04:22:41;102039.94;;;10.29;100.00
10852;BME280;5479;52.046;6.314;2022-10-04T04:25:14;102035.63;;;10.26;100.00
10852;BME280;5479;52.046;6.314;2022-10-04T04:27:45;102038.31;;;10.25;100.00
10852;BME280;5479;52.046;6.314;2022-10-04T04:30:16;102045.56;;;10.20;100.00
10852;BME280;5479;52.046;6.314;2022-10-04T04:32:47;102036.94;;;10.15;100.00
10852;BME280;5479;52.046;6.314;2022-10-04T04:35:21;102040.50;;;10.14;100.00
10852;BME280;5479;52.046;6.314;2022-10-04T04:38:05;102047.59;;;10.12;100.00
10852;BME280;5479;52.046;6.314;2022-10-04T04:40:33;102046.81;;;10.10;100.00
10852;BME280;5479;52.046;6.314;2022-10-04T04:43:04;102048.66;;;10.08;100.00
10852;BME280;5479;52.046;6.314;2022-10-04T04:45:35;102035.41;;;10.08;100.00
10852;BME280;5479;52.046;6.314;2022-10-04T04:48:04;102046.03;;;10.06;100.00
10852;BME280;5479;52.046;6.314;2022-10-04T04:50:34;102044.25;;;10.07;100.00
10852;BME280;5479;52.046;6.314;2022-10-04T04:53:09;102027.78;;;10.00;100.00
10852;BME280;5479;52.046;6.314;2022-10-04T04:55:41;102037.72;;;9.94;100.00
10852;BME280;5479;52.046;6.314;2022-10-04T04:58:16;102038.75;;;9.90;100.00
10852;BME280;5479;52.046;6.314;2022-10-04T05:00:53;102038.78;;;9.88;100.00
10852;BME280;5479;52.046;6.314;2022-10-04T05:03:22;102032.88;;;9.82;100.00
10852;BME280;5479;52.046;6.314;2022-10-04T05:05:52;102030.94;;;9.87;100.00
10852;BME280;5479;52.046;6.314;2022-10-04T05:08:31;102023.91;;;9.86;100.00
10852;BME280;5479;52.046;6.314;2022-10-04T05:11:03;102018.59;;;9.86;100.00
10852;BME280;5479;52.046;6.314;2022-10-04T05:13:38;102012.22;;;9.91;100.00
10852;BME280;5479;52.046;6.314;2022-10-04T05:16:11;102014.94;;;9.90;100.00
10852;BME280;5479;52.046;6.314;2022-10-04T05:18:40;102021.94;;;9.91;100.00
10852;BME280;5479;52.046;6.314;2022-10-04T05:21:13;102008.13;;;9.83;100.00
10852;BME280;5479;52.046;6.314;2022-10-04T05:23:42;102013.19;;;9.89;100.00
10852;BME280;5479;52.046;6.314;2022-10-04T05:26:10;102002.63;;;9.89;100.00
10852;BME280;5479;52.046;6.314;2022-10-04T05:28:40;102020.56;;;9.81;100.00
10852;BME280;5479;52.046;6.314;2022-10-04T05:31:23;102030.59;;;9.71;100.00
10852;BME280;5479;52.046;6.314;2022-10-04T05:33:56;102026.53;;;9.62;100.00
10852;BME280;5479;52.046;6.314;2022-10-04T05:36:40;102034.50;;;9.61;100.00
10852;BME280;5479;52.046;6.314;2022-10-04T05:39:21;102042.59;;;9.56;100.00
10852;BME280;5479;52.046;6.314;2022-10-04T05:41:56;102037.53;;;9.50;100.00
10852;BME280;5479;52.046;6.314;2022-10-04T05:44:34;102045.66;;;9.44;100.00
10852;BME280;5479;52.046;6.314;2022-10-04T05:47:06;102050.53;;;9.56;100.00
10852;BME280;5479;52.046;6.314;2022-10-04T05:49:40;102051.44;;;9.55;100.00
10852;BME280;5479;52.046;6.314;2022-10-04T05:52:14;102037.00;;;9.65;100.00
10852;BME280;5479;52.046;6.314;2022-10-04T05:54:43;102035.25;;;9.64;100.00
10852;BME280;5479;52.046;6.314;2022-10-04T05:57:29;102038.69;;;9.66;100.00
10852;BME280;5479;52.046;6.314;2022-10-04T06:00:10;102046.72;;;9.65;100.00
10852;BME280;5479;52.046;6.314;2022-10-04T06:03:03;102036.50;;;9.54;100.00
10852;BME280;5479;52.046;6.314;2022-10-04T06:05:43;102030.84;;;9.65;100.00
10852;BME280;5479;52.046;6.314;2022-10-04T06:08:22;102035.38;;;9.61;100.00
10852;BME280;5479;52.046;6.314;2022-10-04T06:11:02;102037.78;;;9.67;100.00
10852;BME280;5479;52.046;6.314;2022-10-04T06:13:51;102036.66;;;9.75;100.00
10852;BME280;5479;52.046;6.314;2022-10-04T06:16:37;102041.63;;;9.84;100.00
10852;BME280;5479;52.046;6.314;2022-10-04T06:19:27;102043.75;;;9.97;100.00
10852;BME280;5479;52.046;6.314;2022-10-04T06:22:10;102043.00;;;9.94;100.00
10852;BME280;5479;52.046;6.314;2022-10-04T06:24:44;102043.56;;;10.02;100.00
10852;BME280;5479;52.046;6.314;2022-10-04T06:27:17;102040.72;;;10.08;100.00
10852;BME280;5479;52.046;6.314;2022-10-04T06:29:50;102057.31;;;10.11;100.00
10852;BME280;5479;52.046;6.314;2022-10-04T06:32:35;102061.66;;;10.14;100.00
10852;BME280;5479;52.046;6.314;2022-10-04T06:35:27;102050.72;;;10.24;100.00
10852;BME280;5479;52.046;6.314;2022-10-04T06:41:16;102046.69;;;10.36;100.00
10852;BME280;5479;52.046;6.314;2022-10-04T06:44:07;102045.41;;;10.46;100.00
10852;BME280;5479;52.046;6.314;2022-10-04T06:46:45;102045.50;;;10.45;100.00
10852;BME280;5479;52.046;6.314;2022-10-04T06:49:25;102044.63;;;10.44;100.00
10852;BME280;5479;52.046;6.314;2022-10-04T06:52:23;102054.06;;;10.51;100.00
10852;BME280;5479;52.046;6.314;2022-10-04T06:58:18;102062.75;;;10.76;100.00
10852;BME280;5479;52.046;6.314;2022-10-04T07:00:53;102057.47;;;10.76;100.00
10852;BME280;5479;52.046;6.314;2022-10-04T07:03:27;102050.25;;;10.80;100.00
10852;BME280;5479;52.046;6.314;2022-10-04T07:06:01;102058.69;;;10.89;100.00
10852;BME280;5479;52.046;6.314;2022-10-04T07:08:35;102069.03;;;10.96;100.00
10852;BME280;5479;52.046;6.314;2022-10-04T07:11:11;102048.75;;;10.95;100.00
10852;BME280;5479;52.046;6.314;2022-10-04T07:13:47;102052.91;;;11.02;100.00
10852;BME280;5479;52.046;6.314;2022-10-04T07:16:31;102045.44;;;10.89;100.00
10852;BME280;5479;52.046;6.314;2022-10-04T07:19:15;102043.03;;;10.83;100.00
10852;BME280;5479;52.046;6.314;2022-10-04T07:21:52;102035.88;;;11.07;100.00
10852;BME280;5479;52.046;6.314;2022-10-04T07:24:25;102040.06;;;11.53;100.00
10852;BME280;5479;52.046;6.314;2022-10-04T07:26:57;102039.78;;;11.99;100.00
10852;BME280;5479;52.046;6.314;2022-10-04T07:29:31;102028.63;;;12.12;100.00
10852;BME280;5479;52.046;6.314;2022-10-04T07:32:07;102031.84;;;12.37;100.00
10852;BME280;5479;52.046;6.314;2022-10-04T07:34:43;102026.09;;;12.46;100.00
10852;BME280;5479;52.046;6.314;2022-10-04T07:37:15;102021.56;;;12.48;100.00
10852;BME280;5479;52.046;6.314;2022-10-04T07:39:47;102026.81;;;12.31;100.00
10852;BME280;5479;52.046;6.314;2022-10-04T07:42:23;102024.09;;;12.68;100.00
10852;BME280;5479;52.046;6.314;2022-10-04T07:44:59;102021.16;;;13.27;100.00
10852;BME280;5479;52.046;6.314;2022-10-04T07:47:30;102021.78;;;13.66;100.00
10852;BME280;5479;52.046;6.314;2022-10-04T07:49:58;102018.94;;;14.02;100.00
10852;BME280;5479;52.046;6.314;2022-10-04T07:52:42;102015.13;;;14.70;100.00
10852;BME280;5479;52.046;6.314;2022-10-04T07:55:23;102013.16;;;15.33;100.00
10852;BME280;5479;52.046;6.314;2022-10-04T07:58:12;102009.72;;;16.03;100.00
10852;BME280;5479;52.046;6.314;2022-10-04T08:00:47;102008.41;;;16.65;100.00
10852;BME280;5479;52.046;6.314;2022-10-04T08:06:13;102009.47;;;17.29;100.00
10852;BME280;5479;52.046;6.314;2022-10-04T08:09:06;102002.81;;;16.56;100.00
10852;BME280;5479;52.046;6.314;2022-10-04T08:11:41;102010.38;;;15.50;100.00
10852;BME280;5479;52.046;6.314;2022-10-04T08:14:27;102018.88;;;15.27;100.00
10852;BME280;5479;52.046;6.314;2022-10-04T08:17:10;102015.34;;;14.97;100.00
10852;BME280;5479;52.046;6.314;2022-10-04T08:19:48;102005.22;;;15.47;100.00
10852;BME280;5479;52.046;6.314;2022-10-04T08:22:31;102009.25;;;15.68;100.00
10852;BME280;5479;52.046;6.314;2022-10-04T08:25:07;102011.09;;;16.10;100.00
10852;BME280;5479;52.046;6.314;2022-10-04T08:27:49;102009.78;;;16.58;100.00
10852;BME280;5479;52.046;6.314;2022-10-04T08:30:49;102010.72;;;16.57;100.00
10852;BME280;5479;52.046;6.314;2022-10-04T08:33:38;102011.72;;;15.28;100.00
10852;BME280;5479;52.046;6.314;2022-10-04T08:36:18;102011.00;;;15.10;100.00
10852;BME280;5479;52.046;6.314;2022-10-04T08:38:51;102012.75;;;15.11;100.00
10852;BME280;5479;52.046;6.314;2022-10-04T08:41:44;102013.28;;;16.59;100.00
10852;BME280;5479;52.046;6.314;2022-10-04T08:47:47;102012.97;;;17.81;95.92
10852;BME280;5479;52.046;6.314;2022-10-04T08:50:31;102019.78;;;18.72;85.97
10852;BME280;5479;52.046;6.314;2022-10-04T08:53:29;102025.47;;;18.19;88.38
10852;BME280;5479;52.046;6.314;2022-10-04T08:56:08;102022.56;;;18.22;86.29
10852;BME280;5479;52.046;6.314;2022-10-04T08:59:04;102013.94;;;18.42;87.95
10852;BME280;5479;52.046;6.314;2022-10-04T09:02:00;102009.63;;;18.52;84.81
10852;BME280;5479;52.046;6.314;2022-10-04T09:05:01;102004.28;;;18.39;85.86
10852;BME280;5479;52.046;6.314;2022-10-04T09:10:48;102008.31;;;18.81;78.54
10852;BME280;5479;52.046;6.314;2022-10-04T09:13:33;102000.84;;;19.32;81.41
10852;BME280;5479;52.046;6.314;2022-10-04T09:16:14;101990.28;;;19.42;75.75
10852;BME280;5479;52.046;6.314;2022-10-04T09:19:14;101993.59;;;18.87;81.32
10852;BME280;5479;52.046;6.314;2022-10-04T09:22:02;101993.09;;;18.58;80.65
10852;BME280;5479;52.046;6.314;2022-10-04T09:27:45;101990.56;;;17.82;90.19
10852;BME280;5479;52.046;6.314;2022-10-04T09:30:18;102007.16;;;17.75;90.04
10852;BME280;5479;52.046;6.314;2022-10-04T09:33:08;101995.28;;;18.28;87.53
10852;BME280;5479;52.046;6.314;2022-10-04T09:36:00;101987.69;;;19.05;80.94
10852;BME280;5479;52.046;6.314;2022-10-04T09:38:48;101991.38;;;19.04;79.56
10852;BME280;5479;52.046;6.314;2022-10-04T09:41:33;101988.88;;;19.82;76.58
10852;BME280;5479;52.046;6.314;2022-10-04T09:44:25;101990.84;;;20.24;72.42
10852;BME280;5479;52.046;6.314;2022-10-04T09:47:15;101990.09;;;20.33;71.55
10852;BME280;5479;52.046;6.314;2022-10-04T09:52:57;101976.13;;;21.14;68.08
10852;BME280;5479;52.046;6.314;2022-10-04T09:55:42;101982.13;;;21.18;66.30
10852;BME280;5479;52.046;6.314;2022-10-04T09:58:39;101980.50;;;20.94;66.31
10852;BME280;5479;52.046;6.314;2022-10-04T10:01:20;101981.97;;;21.19;66.22
10852;BME280;5479;52.046;6.314;2022-10-04T10:04:09;101980.19;;;21.71;62.09
10852;BME280;5479;52.046;6.314;2022-10-04T10:07:11;101970.69;;;21.97;58.49
10852;BME280;5479;52.046;6.314;2022-10-04T10:09:50;101980.34;;;21.07;62.38
10852;BME280;5479;52.046;6.314;2022-10-04T10:16:23;101968.63;;;22.88;52.60
10852;BME280;5479;52.046;6.314;2022-10-04T10:19:20;101970.38;;;21.70;58.67
10852;BME280;5479;52.046;6.314;2022-10-04T10:22:01;101964.16;;;21.48;58.68
10852;BME280;5479;52.046;6.314;2022-10-04T10:24:53;101961.69;;;22.17;56.07
10852;BME280;5479;52.046;6.314;2022-10-04T10:30:23;101956.75;;;23.56;50.11
10852;BME280;5479;52.046;6.314;2022-10-04T10:33:21;101958.72;;;24.00;47.87
10852;BME280;5479;52.046;6.314;2022-10-04T10:36:10;101962.22;;;24.83;46.07
10852;BME280;5479;52.046;6.314;2022-10-04T10:38:55;101949.72;;;24.72;46.16
10852;BME280;5479;52.046;6.314;2022-10-04T10:41:38;101948.78;;;24.46;46.30
10852;BME280;5479;52.046;6.314;2022-10-04T10:44:20;101948.22;;;24.87;45.45
10852;BME280;5479;52.046;6.314;2022-10-04T10:47:04;101943.81;;;25.30;43.67
10852;BME280;5479;52.046;6.314;2022-10-04T10:49:41;101933.31;;;25.78;43.12
10852;BME280;5479;52.046;6.314;2022-10-04T11:02:01;101934.25;;;26.45;41.02
10852;BME280;5479;52.046;6.314;2022-10-04T11:04:46;101947.06;;;27.25;40.24
10852;BME280;5479;52.046;6.314;2022-10-04T11:07:34;101949.97;;;26.91;40.07
10852;BME280;5479;52.046;6.314;2022-10-04T11:13:35;101947.84;;;26.03;42.24
10852;BME280;5479;52.046;6.314;2022-10-04T11:16:18;101946.09;;;26.35;41.82
10852;BME280;5479;52.046;6.314;2022-10-04T11:22:50;101928.41;;;24.69;43.70
10852;BME280;5479;52.046;6.314;2022-10-04T11:25:25;101930.31;;;24.94;44.79
10852;BME280;5479;52.046;6.314;2022-10-04T11:28:06;101930.28;;;23.96;47.70
10852;BME280;5479;52.046;6.314;2022-10-04T11:31:03;101917.41;;;23.71;48.46
10852;BME280;5479;52.046;6.314;2022-10-04T11:34:07;101922.88;;;24.43;47.29
10852;BME280;5479;52.046;6.314;2022-10-04T11:36:58;101905.72;;;24.08;46.99
10852;BME280;5479;52.046;6.314;2022-10-04T11:39:47;101892.78;;;24.64;46.43
10852;BME280;5479;52.046;6.314;2022-10-04T11:42:28;101895.72;;;24.18;46.61
10852;BME280;5479;52.046;6.314;2022-10-04T11:45:16;101897.44;;;24.54;46.55
10852;BME280;5479;52.046;6.314;2022-10-04T11:47:59;101895.34;;;24.66;46.40
10852;BME280;5479;52.046;6.314;2022-10-04T11:50:36;101895.41;;;24.91;45.63
10852;BME280;5479;52.046;6.314;2022-10-04T11:53:25;101896.19;;;25.27;45.57
10852;BME280;5479;52.046;6.314;2022-10-04T11:56:09;101898.38;;;24.45;45.91
10852;BME280;5479;52.046;6.314;2022-10-04T11:58:50;101889.03;;;23.85;47.74
10852;BME280;5479;52.046;6.314;2022-10-04T12:01:44;101874.41;;;23.41;49.28
10852;BME280;5479;52.046;6.314;2022-10-04T12:07:41;101873.81;;;23.47;48.64
10852;BME280;5479;52.046;6.314;2022-10-04T12:10:23;101863.91;;;23.38;49.38
10852;BME280;5479;52.046;6.314;2022-10-04T12:19:09;101868.63;;;23.90;47.62
10852;BME280;5479;52.046;6.314;2022-10-04T12:22:05;101861.81;;;24.14;47.77
10852;BME280;5479;52.046;6.314;2022-10-04T12:25:02;101865.34;;;23.69;47.47
10852;BME280;5479;52.046;6.314;2022-10-04T12:27:47;101859.75;;;22.49;50.22
10852;BME280;5479;52.046;6.314;2022-10-04T12:30:22;101860.00;;;22.37;50.47
10852;BME280;5479;52.046;6.314;2022-10-04T12:33:00;101856.41;;;21.58;52.92
10852;BME280;5479;52.046;6.314;2022-10-04T12:35:41;101855.13;;;21.52;54.90
10852;BME280;5479;52.046;6.314;2022-10-04T12:38:20;101850.56;;;20.81;57.24
10852;BME280;5479;52.046;6.314;2022-10-04T12:40:56;101832.53;;;20.52;59.61
10852;BME280;5479;52.046;6.314;2022-10-04T12:43:33;101843.19;;;19.99;62.63
10852;BME280;5479;52.046;6.314;2022-10-04T12:46:12;101835.78;;;19.58;65.09
10852;BME280;5479;52.046;6.314;2022-10-04T12:48:56;101828.13;;;19.54;67.85
10852;BME280;5479;52.046;6.314;2022-10-04T12:51:44;101827.63;;;19.71;71.84
10852;BME280;5479;52.046;6.314;2022-10-04T12:54:29;101821.88;;;19.64;66.52
10852;BME280;5479;52.046;6.314;2022-10-04T12:57:13;101818.72;;;19.26;68.14
10852;BME280;5479;52.046;6.314;2022-10-04T12:59:51;101821.06;;;19.42;72.05
10852;BME280;5479;52.046;6.314;2022-10-04T13:02:45;101811.41;;;19.39;66.84
10852;BME280;5479;52.046;6.314;2022-10-04T13:05:21;101812.47;;;19.59;68.19
10852;BME280;5479;52.046;6.314;2022-10-04T13:08:02;101819.34;;;19.52;67.19
10852;BME280;5479;52.046;6.314;2022-10-04T13:10:41;101812.34;;;19.71;66.57
10852;BME280;5479;52.046;6.314;2022-10-04T13:13:43;101809.25;;;19.87;63.72
10852;BME280;5479;52.046;6.314;2022-10-04T13:16:20;101810.25;;;19.75;63.23
10852;BME280;5479;52.046;6.314;2022-10-04T13:18:58;101813.22;;;19.61;64.07
10852;BME280;5479;52.046;6.314;2022-10-04T13:21:55;101809.28;;;19.32;64.54
10852;BME280;5479;52.046;6.314;2022-10-04T13:24:31;101806.84;;;19.06;66.48
10852;BME280;5479;52.046;6.314;2022-10-04T13:27:26;101810.16;;;18.99;66.61
10852;BME280;5479;52.046;6.314;2022-10-04T13:30:00;101801.97;;;19.00;66.90
10852;BME280;5479;52.046;6.314;2022-10-04T13:32:40;101803.78;;;19.11;67.09
10852;BME280;5479;52.046;6.314;2022-10-04T13:35:17;101797.69;;;19.09;66.84
10852;BME280;5479;52.046;6.314;2022-10-04T13:38:00;101805.16;;;19.27;66.35
10852;BME280;5479;52.046;6.314;2022-10-04T13:40:57;101798.56;;;19.43;67.04
10852;BME280;5479;52.046;6.314;2022-10-04T13:43:40;101790.72;;;19.73;66.48
10852;BME280;5479;52.046;6.314;2022-10-04T13:46:22;101780.66;;;19.86;64.66
10852;BME280;5479;52.046;6.314;2022-10-04T13:49:02;101782.63;;;19.84;63.52
10852;BME280;5479;52.046;6.314;2022-10-04T13:52:03;101794.75;;;19.67;62.32
10852;BME280;5479;52.046;6.314;2022-10-04T13:55:10;101800.44;;;19.85;64.67
10852;BME280;5479;52.046;6.314;2022-10-04T13:58:19;101792.59;;;19.93;61.79
10852;BME280;5479;52.046;6.314;2022-10-04T14:01:12;101781.28;;;19.78;62.33
10852;BME280;5479;52.046;6.314;2022-10-04T14:03:59;101775.56;;;19.72;62.54
10852;BME280;5479;52.046;6.314;2022-10-04T14:07:12;101763.34;;;19.79;63.44
10852;BME280;5479;52.046;6.314;2022-10-04T14:10:00;101770.38;;;19.91;62.50
10852;BME280;5479;52.046;6.314;2022-10-04T14:13:03;101758.44;;;19.84;63.94
10852;BME280;5479;52.046;6.314;2022-10-04T14:16:11;101753.78;;;19.86;62.42
10852;BME280;5479;52.046;6.314;2022-10-04T14:19:01;101744.75;;;19.87;61.59
10852;BME280;5479;52.046;6.314;2022-10-04T14:21:55;101727.50;;;19.90;59.20
10852;BME280;5479;52.046;6.314;2022-10-04T14:25:03;101736.91;;;19.95;59.70
10852;BME280;5479;52.046;6.314;2022-10-04T14:27:53;101727.81;;;19.96;58.38
10852;BME280;5479;52.046;6.314;2022-10-04T14:30:33;101720.50;;;19.98;58.83
10852;BME280;5479;52.046;6.314;2022-10-04T14:36:29;101716.16;;;19.86;57.53
10852;BME280;5479;52.046;6.314;2022-10-04T14:42:28;101711.53;;;19.77;59.98
10852;BME280;5479;52.046;6.314;2022-10-04T14:45:20;101707.66;;;19.70;60.51
10852;BME280;5479;52.046;6.314;2022-10-04T14:48:17;101710.84;;;19.64;60.05
10852;BME280;5479;52.046;6.314;2022-10-04T14:51:10;101706.97;;;19.57;60.27
10852;BME280;5479;52.046;6.314;2022-10-04T14:53:50;101711.00;;;19.29;60.66
10852;BME280;5479;52.046;6.314;2022-10-04T14:56:48;101720.94;;;19.06;64.21
10852;BME280;5479;52.046;6.314;2022-10-04T14:59:44;101724.09;;;19.00;66.33
10852;BME280;5479;52.046;6.314;2022-10-04T15:05:39;101727.41;;;18.82;65.84
10852;BME280;5479;52.046;6.314;2022-10-04T15:08:40;101733.25;;;18.76;66.68
10852;BME280;5479;52.046;6.314;2022-10-04T15:11:13;101737.25;;;18.70;68.78
10852;BME280;5479;52.046;6.314;2022-10-04T15:13:50;101729.22;;;18.59;68.95